Time;durP1;ratioP1;P1;durP2;ratioP2;P2;SDS_P1;SDS_P2;PMS_P1;PMS_P2;Temp;Humidity;BMP_temperature;BMP_pressure;BME280_temperature;BME280_humidity;BME280_pressure;Samples;Min_cycle;Max_cycle;Signal;HPM_P1;HPM_P2
2022/06/02 00:02:18;;;;;;;5.20;4.50;;;;;;;6.96;96.96;101867.59;4954935;28;20074;-85
2022/06/02 00:05:02;;;;;;;10.07;5.40;;;;;;;6.91;97.00;101867.44;4964103;28;20307;-85
2022/06/02 00:07:39;;;;;;;7.07;5.40;;;;;;;6.87;97.62;101867.00;4954759;28;20030;-85
2022/06/02 00:10:25;;;;;;;8.45;6.13;;;;;;;6.84;97.39;101871.94;4972079;28;20027;-85
2022/06/02 00:13:17;;;;;;;7.43;5.30;;;;;;;6.79;97.50;101869.91;4968785;28;20046;-85
2022/06/02 00:15:52;;;;;;;10.30;4.95;;;;;;;6.74;97.11;101870.53;4952539;29;20386;-85
2022/06/02 00:18:37;;;;;;;7.38;5.13;;;;;;;6.65;97.00;101863.75;4963460;28;20022;-85
2022/06/02 00:21:17;;;;;;;10.50;5.20;;;;;;;6.59;97.23;101869.88;4965618;28;20390;-84
2022/06/02 00:23:56;;;;;;;5.75;5.15;;;;;;;6.49;97.02;101870.31;4932879;29;20035;-85
2022/06/02 00:26:44;;;;;;;7.22;5.55;;;;;;;6.42;97.12;101867.66;4945704;29;20050;-85
2022/06/02 00:29:42;;;;;;;8.07;5.70;;;;;;;6.34;97.54;101867.84;4965514;28;20117;-85
2022/06/02 00:32:17;;;;;;;7.00;5.33;;;;;;;6.29;98.01;101871.13;4933162;29;20342;-85
2022/06/02 00:34:42;;;;;;;9.75;5.43;;;;;;;6.26;98.39;101870.69;4933510;29;20119;-85
2022/06/02 00:37:35;;;;;;;7.43;5.87;;;;;;;6.27;99.04;101873.19;4949823;28;20130;-84
2022/06/02 00:40:02;;;;;;;10.60;5.55;;;;;;;6.21;99.02;101874.78;4957721;28;20031;-85
2022/06/02 00:43:19;;;;;;;7.72;6.10;;;;;;;6.20;99.33;101870.50;5030970;23;20132;-84
2022/06/02 00:45:49;;;;;;;6.95;5.80;;;;;;;6.13;98.55;101874.16;5010974;28;20037;-85
2022/06/02 00:48:48;;;;;;;8.25;6.20;;;;;;;6.05;98.54;101868.03;5009833;28;20028;-85
2022/06/02 00:51:21;;;;;;;8.55;5.93;;;;;;;6.04;99.02;101870.88;5003874;28;20108;-85
2022/06/02 01:00:04;;;;;;;10.13;6.75;;;;;;;6.05;100.00;101885.81;4988476;28;20097;-85
2022/06/02 01:02:36;;;;;;;9.57;6.83;;;;;;;6.03;100.00;101877.22;4981215;28;20554;-85
2022/06/02 01:05:02;;;;;;;10.33;6.10;;;;;;;5.99;100.00;101876.75;4989332;28;20305;-85
2022/06/02 01:07:50;;;;;;;7.95;6.25;;;;;;;5.97;100.00;101878.00;4985963;28;20040;-84
2022/06/02 01:10:24;;;;;;;7.45;5.93;;;;;;;5.92;100.00;101878.59;4988745;28;20033;-84
2022/06/02 01:13:06;;;;;;;9.75;6.88;;;;;;;5.85;100.00;101875.91;4990629;28;20022;-85
2022/06/02 01:15:49;;;;;;;11.20;6.30;;;;;;;5.79;100.00;101871.41;4987392;28;20042;-85
2022/06/02 01:18:34;;;;;;;9.50;6.23;;;;;;;5.82;100.00;101879.00;4990765;28;20692;-85
2022/06/02 01:21:12;;;;;;;9.20;6.57;;;;;;;5.78;100.00;101879.56;4974588;28;20026;-85
2022/06/02 01:24:10;;;;;;;7.22;6.00;;;;;;;5.74;100.00;101879.16;4970671;28;20039;-85
2022/06/02 01:26:53;;;;;;;7.75;6.10;;;;;;;5.65;99.90;101872.38;4946828;28;20046;-85
2022/06/02 01:30:13;;;;;;;10.27;6.97;;;;;;;5.55;99.95;101881.53;4989994;28;20045;-85
2022/06/02 01:32:50;;;;;;;9.93;6.93;;;;;;;5.50;100.00;101881.31;4934032;29;20046;-85
2022/06/02 01:35:34;;;;;;;9.45;7.75;;;;;;;5.41;100.00;101882.50;4980995;28;20498;-84
2022/06/02 01:38:04;;;;;;;13.95;7.97;;;;;;;5.44;100.00;101874.94;4989666;28;20030;-84
2022/06/02 01:41:19;;;;;;;12.00;8.50;;;;;;;5.42;100.00;101876.97;4982223;28;20038;-84
2022/06/02 01:44:07;;;;;;;11.63;8.03;;;;;;;5.45;100.00;101879.25;4957747;28;20046;-84
2022/06/02 01:46:57;;;;;;;12.33;8.27;;;;;;;5.40;100.00;101880.84;4988364;28;20388;-84
2022/06/02 01:49:38;;;;;;;10.48;7.03;;;;;;;5.39;100.00;101879.22;4989276;28;20109;-85
2022/06/02 01:52:40;;;;;;;12.10;7.53;;;;;;;5.41;100.00;101882.50;4988815;28;20062;-84
2022/06/02 01:55:43;;;;;;;9.68;7.25;;;;;;;5.38;100.00;101878.41;4988270;28;20066;-84
2022/06/02 01:58:27;;;;;;;11.32;7.15;;;;;;;5.31;100.00;101866.91;4989722;28;20399;-84
2022/06/02 02:01:23;;;;;;;9.80;6.95;;;;;;;5.25;100.00;101876.50;4973079;28;20031;-84
2022/06/02 02:04:26;;;;;;;10.77;7.28;;;;;;;5.19;100.00;101868.50;4976124;28;20042;-84
2022/06/02 02:06:57;;;;;;;11.93;8.32;;;;;;;5.20;100.00;101872.78;4980228;28;20102;-84
2022/06/02 02:09:22;;;;;;;10.30;8.07;;;;;;;5.21;100.00;101880.56;4971095;28;20410;-83
2022/06/02 02:11:54;;;;;;;11.10;8.00;;;;;;;5.23;100.00;101877.69;4969785;28;20031;-85
2022/06/02 02:15:00;;;;;;;14.05;8.68;;;;;;;5.28;100.00;101883.25;4984198;28;20840;-85
2022/06/02 02:17:50;;;;;;;12.33;8.17;;;;;;;5.31;100.00;101893.50;4980462;28;20034;-85
2022/06/02 02:20:21;;;;;;;11.33;8.50;;;;;;;5.29;100.00;101891.03;4969608;28;20310;-85
2022/06/02 02:22:47;;;;;;;13.07;9.40;;;;;;;5.30;100.00;101895.31;4969279;28;20780;-85
2022/06/02 02:25:18;;;;;;;13.67;9.37;;;;;;;5.29;100.00;101898.19;4978817;28;20038;-86
2022/06/02 02:28:04;;;;;;;15.98;10.45;;;;;;;5.22;100.00;101897.31;4989896;28;20034;-84
2022/06/02 02:30:55;;;;;;;16.45;10.57;;;;;;;5.15;100.00;101889.28;4977883;28;20031;-83
2022/06/02 02:33:47;;;;;;;14.65;10.48;;;;;;;5.06;100.00;101893.13;4964706;28;20080;-84
2022/06/02 02:36:23;;;;;;;19.17;10.63;;;;;;;4.99;100.00;101888.59;4989406;28;20474;-84
2022/06/02 02:38:54;;;;;;;15.27;11.18;;;;;;;4.97;100.00;101892.47;4992491;28;20054;-84
2022/06/02 02:41:41;;;;;;;16.75;11.27;;;;;;;4.88;100.00;101883.00;4993131;28;20030;-85
2022/06/02 02:44:15;;;;;;;17.95;11.48;;;;;;;4.86;100.00;101893.81;4991811;28;20496;-85
2022/06/02 02:46:48;;;;;;;18.13;11.13;;;;;;;4.82;100.00;101895.22;4973933;28;20110;-85
2022/06/02 02:49:21;;;;;;;16.30;11.07;;;;;;;4.80;100.00;101898.06;4992665;28;20452;-85
2022/06/02 02:51:49;;;;;;;18.90;11.87;;;;;;;4.79;100.00;101904.41;4991900;28;20297;-85
2022/06/02 02:54:45;;;;;;;15.68;10.90;;;;;;;4.75;100.00;101903.13;4993172;28;20552;-84
2022/06/02 02:57:24;;;;;;;18.67;11.65;;;;;;;4.75;100.00;101903.13;4980510;28;20062;-84
2022/06/02 03:00:00;;;;;;;17.05;12.10;;;;;;;4.71;100.00;101904.53;4988550;28;20057;-84
2022/06/02 03:02:37;;;;;;;18.58;11.75;;;;;;;4.67;100.00;101904.09;4982363;28;20030;-85
2022/06/02 03:05:05;;;;;;;20.35;11.75;;;;;;;4.68;100.00;101907.56;4990670;28;20038;-84
2022/06/02 03:07:31;;;;;;;16.92;11.88;;;;;;;4.65;100.00;101900.81;4991564;28;20030;-84
2022/06/02 03:10:00;;;;;;;16.60;11.20;;;;;;;4.60;100.00;101908.50;4993148;28;20027;-85
2022/06/02 03:12:34;;;;;;;17.63;11.60;;;;;;;4.51;100.00;101907.03;4992501;28;20496;-84
2022/06/02 03:15:40;;;;;;;18.23;11.57;;;;;;;4.51;100.00;101912.31;4987896;28;20039;-85
2022/06/02 03:18:11;;;;;;;19.38;11.80;;;;;;;4.58;100.00;101915.03;4987306;28;20479;-84
2022/06/02 03:20:49;;;;;;;17.00;11.20;;;;;;;4.57;100.00;101916.03;4993910;28;20023;-85
2022/06/02 03:23:29;;;;;;;16.27;11.05;;;;;;;4.55;100.00;101919.72;4992438;28;20069;-85
2022/06/02 03:26:14;;;;;;;19.23;11.43;;;;;;;4.54;100.00;101925.22;4989803;28;20046;-84
2022/06/02 03:28:52;;;;;;;22.27;12.23;;;;;;;4.53;100.00;101920.91;4992086;28;20294;-83
2022/06/02 03:31:28;;;;;;;24.35;12.20;;;;;;;4.44;100.00;101924.69;4991421;28;20037;-84
2022/06/02 03:34:02;;;;;;;21.20;11.95;;;;;;;4.40;100.00;101932.22;4992394;28;20066;-84
2022/06/02 03:36:47;;;;;;;19.20;12.25;;;;;;;4.44;100.00;101932.66;4989786;28;20095;-85
2022/06/02 03:39:35;;;;;;;20.80;12.85;;;;;;;4.46;100.00;101942.09;4978148;28;20398;-84
2022/06/02 03:42:21;;;;;;;22.77;12.68;;;;;;;4.54;100.00;101936.66;4988444;28;20041;-82
2022/06/02 03:45:11;;;;;;;18.45;12.57;;;;;;;4.69;100.00;101946.38;4990991;28;20026;-84
2022/06/02 03:48:06;;;;;;;18.30;11.95;;;;;;;4.73;100.00;101949.50;4992097;28;20034;-84
2022/06/02 03:50:56;;;;;;;19.20;11.98;;;;;;;4.68;100.00;101950.88;4991630;28;20081;-84
2022/06/02 03:53:33;;;;;;;23.23;12.43;;;;;;;4.69;100.00;101952.53;4980373;28;20037;-84
2022/06/02 03:56:26;;;;;;;18.03;12.30;;;;;;;4.68;100.00;101947.38;4988049;28;20301;-84
2022/06/02 03:59:26;;;;;;;19.70;13.05;;;;;;;4.67;100.00;101949.22;4971993;28;20030;-84
2022/06/02 04:02:00;;;;;;;23.98;13.18;;;;;;;4.74;100.00;101953.78;4975727;28;20564;-84
2022/06/02 04:04:53;;;;;;;23.98;13.43;;;;;;;4.82;100.00;101961.59;4991926;28;20041;-83
2022/06/02 04:07:30;;;;;;;22.60;13.93;;;;;;;4.85;100.00;101961.22;4980322;28;20022;-83
2022/06/02 04:10:05;;;;;;;21.05;13.25;;;;;;;4.88;100.00;101965.31;4989692;28;20137;-84
2022/06/02 04:16:07;;;;;;;20.38;13.02;;;;;;;4.91;100.00;101955.16;4981990;28;20387;-82
2022/06/02 04:19:01;;;;;;;21.63;13.57;;;;;;;4.92;100.00;101956.81;4971978;28;20023;-87
2022/06/02 04:21:49;;;;;;;20.05;12.88;;;;;;;4.99;100.00;101965.63;4973284;28;20049;-91
2022/06/02 04:24:29;;;;;;;25.63;14.13;;;;;;;5.11;100.00;101975.75;4985347;28;20065;-89
2022/06/02 04:27:12;;;;;;;21.98;14.18;;;;;;;5.20;100.00;101969.25;4988533;28;20030;-89
2022/06/02 04:29:55;;;;;;;22.73;14.45;;;;;;;5.30;100.00;101971.59;4988068;28;20116;-92
2022/06/02 04:32:43;;;;;;;20.38;13.10;;;;;;;5.34;100.00;101975.50;4991617;28;20030;-92
2022/06/02 04:35:30;;;;;;;22.60;14.07;;;;;;;5.42;100.00;101979.84;4990455;28;20041;-91
2022/06/02 04:38:20;;;;;;;22.63;14.40;;;;;;;5.49;100.00;101982.53;4993005;28;20516;-89
2022/06/02 04:41:10;;;;;;;24.70;15.50;;;;;;;5.55;100.00;101982.56;4978966;28;20114;-91
2022/06/02 04:43:54;;;;;;;22.55;14.82;;;;;;;5.63;100.00;101983.44;4976326;28;20069;-91
2022/06/02 04:46:36;;;;;;;25.27;14.80;;;;;;;5.69;100.00;101977.31;4990441;28;20034;-90
2022/06/02 04:49:27;;;;;;;23.47;14.87;;;;;;;5.89;100.00;101986.22;4972842;28;20031;-91
2022/06/02 04:52:02;;;;;;;29.43;17.97;;;;;;;7.08;100.00;101985.91;4944862;28;20290;-89
2022/06/02 04:54:37;;;;;;;26.52;17.25;;;;;;;8.79;98.06;101997.38;4986164;28;20061;-91
2022/06/02 04:57:17;;;;;;;23.02;15.43;;;;;;;10.32;90.34;102000.56;4991218;28;20034;-91
2022/06/02 04:59:59;;;;;;;20.42;14.52;;;;;;;11.63;85.78;101999.69;4994912;28;20038;-92
2022/06/02 05:02:47;;;;;;;23.70;15.45;;;;;;;12.63;84.25;102006.69;4991318;28;20587;-92
2022/06/02 05:05:22;;;;;;;21.45;14.95;;;;;;;13.56;78.59;102007.31;4988951;28;20390;-90
2022/06/02 05:07:47;;;;;;;21.65;14.13;;;;;;;14.26;72.99;102014.88;4979323;28;20164;-92
2022/06/02 05:10:43;;;;;;;21.23;14.37;;;;;;;14.83;76.14;102017.06;4990577;28;20110;-92
2022/06/02 05:13:37;;;;;;;18.25;12.73;;;;;;;15.44;73.99;102013.13;4963246;28;20039;-90
2022/06/02 05:16:20;;;;;;;18.02;12.80;;;;;;;16.05;68.78;102024.53;4980959;28;20069;-91
2022/06/02 05:18:52;;;;;;;17.35;12.82;;;;;;;16.53;62.93;102021.63;4991439;28;20073;-93
2022/06/02 05:22:01;;;;;;;19.53;13.80;;;;;;;16.95;69.18;102023.28;4978314;28;20027;-92
2022/06/02 05:25:04;;;;;;;15.77;12.33;;;;;;;17.28;66.07;102027.56;4971841;28;20309;-92
2022/06/02 05:28:14;;;;;;;18.30;13.18;;;;;;;17.67;64.76;102021.50;4973469;28;20030;-91
2022/06/02 05:31:02;;;;;;;16.02;12.57;;;;;;;17.99;63.27;102018.41;4981965;28;20046;-91
2022/06/02 05:33:34;;;;;;;18.35;14.07;;;;;;;18.11;57.89;102020.81;4975565;28;20059;-91
2022/06/02 05:36:32;;;;;;;22.13;14.65;;;;;;;18.23;59.38;102016.91;4985275;28;20035;-90
2022/06/02 05:39:06;;;;;;;20.17;14.07;;;;;;;18.42;57.12;102025.22;4963562;28;20129;-91
2022/06/02 05:42:07;;;;;;;21.08;14.73;;;;;;;18.50;57.58;102021.09;4971822;28;20043;-91
2022/06/02 05:44:48;;;;;;;17.90;13.60;;;;;;;18.46;58.98;102023.53;4965077;28;20066;-88
2022/06/02 05:47:50;;;;;;;20.52;14.82;;;;;;;18.46;61.23;102018.13;4985086;28;20035;-88
2022/06/02 05:50:50;;;;;;;23.70;14.87;;;;;;;18.16;62.01;102033.50;4976453;28;20034;-88
2022/06/02 05:53:26;;;;;;;17.93;13.77;;;;;;;17.61;60.71;102033.47;4960747;28;20808;-88
2022/06/02 05:56:09;;;;;;;24.50;15.02;;;;;;;17.05;62.28;102030.59;4971914;28;20165;-89
2022/06/02 05:59:00;;;;;;;20.77;15.00;;;;;;;16.60;63.66;102032.19;4971556;28;20114;-91
2022/06/02 06:01:58;;;;;;;22.90;15.20;;;;;;;16.02;65.07;102035.84;4962128;28;20073;-91
2022/06/02 06:04:55;;;;;;;29.42;16.27;;;;;;;15.51;66.52;102034.53;4972605;28;20074;-92
2022/06/02 06:07:35;;;;;;;22.88;16.30;;;;;;;14.90;68.91;102034.91;4992139;28;20031;-91
2022/06/02 06:12:37;;;;;;;22.38;17.00;;;;;;;14.20;72.84;102032.88;5489835;22;20113;-91
2022/06/02 06:15:19;;;;;;;24.73;17.38;;;;;;;13.96;72.88;102043.91;4994813;28;20042;-91
2022/06/02 06:18:01;;;;;;;22.80;16.93;;;;;;;13.80;74.23;102045.59;4993385;28;20044;-90
2022/06/02 06:20:48;;;;;;;20.27;16.30;;;;;;;13.69;75.71;102050.06;4993335;28;20293;-90
2022/06/02 06:23:50;;;;;;;22.20;16.23;;;;;;;13.73;76.11;102048.47;4993291;28;20034;-91
2022/06/02 06:26:26;;;;;;;25.20;14.43;;;;;;;13.63;76.43;102051.03;4990167;28;20050;-88
2022/06/02 06:29:31;;;;;;;20.02;14.02;;;;;;;13.58;77.63;102051.78;4990344;28;20022;-87
2022/06/02 06:32:05;;;;;;;18.17;13.85;;;;;;;13.61;78.12;102063.94;4964984;28;20034;-90
2022/06/02 06:34:47;;;;;;;18.65;13.00;;;;;;;13.65;78.17;102054.31;4993319;28;20095;-88
2022/06/02 06:37:36;;;;;;;14.55;11.70;;;;;;;13.74;78.76;102066.25;4985468;28;20039;-88
2022/06/02 06:40:09;;;;;;;16.35;12.32;;;;;;;13.68;78.56;102052.97;5022206;23;20129;-88
2022/06/02 06:42:56;;;;;;;18.23;12.48;;;;;;;13.76;78.18;102063.34;4992818;28;20034;-86
2022/06/02 06:45:29;;;;;;;19.00;12.60;;;;;;;13.80;77.52;102074.41;4989946;28;20705;-88
2022/06/02 06:48:20;;;;;;;17.57;11.40;;;;;;;13.81;77.38;102073.38;4990783;28;20297;-88
2022/06/02 06:51:04;;;;;;;13.05;10.38;;;;;;;13.82;77.78;102085.78;4990672;28;20128;-90
2022/06/02 06:53:45;;;;;;;15.00;11.38;;;;;;;13.81;76.16;102079.56;4973460;28;20494;-91
2022/06/02 06:56:13;;;;;;;15.35;11.05;;;;;;;13.90;77.83;102077.25;4984852;28;20027;-87
2022/06/02 06:59:10;;;;;;;15.30;11.00;;;;;;;14.02;77.99;102085.22;4982712;28;20035;-88
2022/06/02 07:02:01;;;;;;;14.73;10.98;;;;;;;14.01;76.74;102084.41;4974064;28;20085;-89
2022/06/02 07:05:01;;;;;;;16.83;10.50;;;;;;;13.98;77.07;102087.59;4992557;28;20034;-88
2022/06/02 07:08:00;;;;;;;14.52;9.63;;;;;;;13.83;76.99;102090.09;4986667;28;20069;-88
2022/06/02 07:10:56;;;;;;;11.82;9.18;;;;;;;13.92;76.88;102086.72;4978692;28;20038;-87
2022/06/02 07:13:34;;;;;;;11.77;8.73;;;;;;;14.05;74.03;102093.63;4991106;28;20026;-87
2022/06/02 07:16:18;;;;;;;10.87;8.83;;;;;;;14.20;74.62;102087.59;5153171;23;20305;-89
2022/06/02 07:18:58;;;;;;;10.43;8.52;;;;;;;14.13;73.09;102092.38;4994248;28;20039;-88
2022/06/02 07:21:40;;;;;;;12.52;9.15;;;;;;;13.98;74.02;102094.84;4996772;28;20034;-86
2022/06/02 07:24:24;;;;;;;11.55;9.35;;;;;;;13.90;73.89;102093.41;4990756;28;20084;-86
2022/06/02 07:27:10;;;;;;;10.93;9.50;;;;;;;14.18;75.23;102103.19;4988379;28;20552;-86
2022/06/02 07:30:00;;;;;;;13.15;10.55;;;;;;;14.67;74.54;102097.00;4992171;28;20121;-86
2022/06/02 07:33:04;;;;;;;14.25;9.63;;;;;;;15.06;71.40;102109.56;4982675;28;20049;-87
2022/06/02 07:35:51;;;;;;;12.55;9.77;;;;;;;15.51;72.42;102112.88;4991081;28;20692;-87
2022/06/02 07:38:36;;;;;;;10.02;8.80;;;;;;;16.04;68.20;102109.41;4990639;28;20504;-88
2022/06/02 07:41:15;;;;;;;9.87;8.77;;;;;;;16.29;65.87;102118.69;4991356;28;20062;-87
2022/06/02 07:43:52;;;;;;;10.73;8.70;;;;;;;16.08;65.74;102113.19;4990673;28;20297;-88
2022/06/02 07:46:23;;;;;;;10.77;8.15;;;;;;;15.67;65.48;102123.75;4989451;28;20030;-86
2022/06/02 07:49:10;;;;;;;11.68;8.15;;;;;;;15.41;66.26;102118.19;4990900;28;20034;-86
2022/06/02 07:51:50;;;;;;;10.10;7.60;;;;;;;15.15;65.53;102120.69;4990932;28;20112;-87
2022/06/02 07:54:25;;;;;;;9.15;7.60;;;;;;;15.02;66.81;102111.13;4990222;28;20570;-85
2022/06/02 07:56:53;;;;;;;9.20;8.20;;;;;;;14.95;66.25;102116.75;4991774;28;20112;-86
2022/06/02 07:59:41;;;;;;;8.70;7.75;;;;;;;14.91;68.14;102117.50;4990761;28;20041;-86
2022/06/02 08:02:40;;;;;;;9.23;8.32;;;;;;;15.05;68.56;102121.41;4989198;28;20390;-86
2022/06/02 08:05:19;;;;;;;11.45;8.18;;;;;;;15.37;68.23;102111.66;4990269;28;20034;-86
2022/06/02 08:07:56;;;;;;;9.33;8.00;;;;;;;15.77;66.00;102113.00;4990166;28;20042;-86
2022/06/02 08:10:45;;;;;;;9.57;8.30;;;;;;;16.02;64.50;102106.16;4991498;28;20728;-85
2022/06/02 08:13:41;;;;;;;9.90;7.60;;;;;;;15.89;64.38;102110.94;4989823;28;20425;-86
2022/06/02 08:16:11;;;;;;;7.93;6.45;;;;;;;15.58;62.54;102116.13;4977464;28;20038;-87
2022/06/02 08:19:12;;;;;;;7.57;6.25;;;;;;;15.62;65.03;102112.91;4989411;28;20446;-85
2022/06/02 08:21:45;;;;;;;4.65;4.25;;;;;;;15.57;61.60;102113.69;4987365;28;20039;-87
2022/06/02 08:24:25;;;;;;;7.20;5.05;;;;;;;15.51;62.52;102107.47;4991349;28;20035;-85
2022/06/02 08:27:15;;;;;;;6.85;5.63;;;;;;;15.57;62.25;102098.28;4990508;28;20030;-82
2022/06/02 08:30:04;;;;;;;6.63;5.97;;;;;;;15.83;62.39;102103.84;4991385;28;20034;-83
2022/06/02 08:32:32;;;;;;;8.65;6.28;;;;;;;16.43;58.96;102108.19;4989979;28;20064;-82
2022/06/02 08:35:14;;;;;;;6.27;5.57;;;;;;;16.77;59.40;102107.72;4988663;28;20034;-82
2022/06/02 08:37:54;;;;;;;7.90;6.70;;;;;;;16.95;60.39;102117.25;4988643;28;20305;-82
2022/06/02 08:40:48;;;;;;;7.70;6.70;;;;;;;17.00;60.39;102116.44;4989809;28;20041;-82
2022/06/02 08:43:50;;;;;;;7.18;6.07;;;;;;;17.15;57.71;102121.84;4981407;28;20582;-81
2022/06/02 08:46:37;;;;;;;6.15;5.55;;;;;;;17.23;55.54;102117.78;4991295;28;20482;-82
2022/06/02 08:49:21;;;;;;;6.75;4.75;;;;;;;17.23;57.53;102132.16;4989570;28;20030;-83
2022/06/02 08:52:04;;;;;;;8.10;5.80;;;;;;;17.12;55.40;102129.72;4990141;28;20030;-83
2022/06/02 08:55:09;;;;;;;6.70;6.00;;;;;;;17.35;58.49;102131.84;4990732;28;20119;-82
2022/06/02 08:57:57;;;;;;;6.70;5.55;;;;;;;17.51;55.08;102132.66;4971369;28;20043;-83
2022/06/02 09:00:48;;;;;;;6.75;6.05;;;;;;;17.36;56.54;102140.81;4970411;28;20487;-83
2022/06/02 09:03:55;;;;;;;7.37;5.87;;;;;;;16.98;56.70;102132.94;4982566;28;20030;-82
2022/06/02 09:06:58;;;;;;;8.50;6.10;;;;;;;16.58;57.79;102132.56;4949206;28;20291;-82
2022/06/02 09:09:44;;;;;;;7.55;6.07;;;;;;;16.73;57.91;102117.44;4948594;28;20039;-86
2022/06/02 09:12:09;;;;;;;6.47;5.80;;;;;;;16.73;57.41;102117.44;4983810;28;20034;-86
2022/06/02 09:15:05;;;;;;;7.83;5.80;;;;;;;16.74;57.46;102111.78;4988656;28;20031;-85
2022/06/02 09:17:50;;;;;;;6.30;5.68;;;;;;;17.00;56.30;102121.84;4989891;28;20022;-84
2022/06/02 09:20:46;;;;;;;8.68;6.00;;;;;;;17.02;56.51;102120.47;4990237;28;20066;-82
2022/06/02 09:23:30;;;;;;;6.25;5.63;;;;;;;17.19;56.64;102125.63;4989117;28;20041;-85
2022/06/02 09:25:58;;;;;;;5.35;4.85;;;;;;;17.27;51.85;102132.41;4989704;28;20035;-84
2022/06/02 09:28:32;;;;;;;9.98;5.32;;;;;;;17.25;53.70;102131.88;4989883;28;20038;-91
2022/06/02 09:31:29;;;;;;;17.77;5.55;;;;;;;17.48;56.23;102126.97;4987899;28;20038;-88
2022/06/02 09:34:13;;;;;;;6.53;5.93;;;;;;;17.62;52.52;102125.31;4971728;28;20034;-89
2022/06/02 09:37:15;;;;;;;5.03;4.53;;;;;;;17.90;55.52;102122.28;4988342;28;20065;-86
2022/06/02 09:40:16;;;;;;;6.30;5.70;;;;;;;18.26;51.61;102125.69;4978139;28;20312;-86
2022/06/02 09:43:17;;;;;;;7.25;6.55;;;;;;;18.52;54.23;102108.47;4978110;28;20057;-88
2022/06/02 09:46:12;;;;;;;6.47;5.88;;;;;;;18.99;53.53;102117.16;4957740;28;20399;-85
2022/06/02 09:49:04;;;;;;;6.68;5.95;;;;;;;19.14;51.72;102117.00;4973933;28;20047;-83
2022/06/02 09:51:47;;;;;;;7.15;5.85;;;;;;;19.21;51.97;102112.03;4987029;28;20509;-82
2022/06/02 09:54:37;;;;;;;6.50;5.90;;;;;;;19.26;48.58;102113.09;4992407;28;20500;-85
2022/06/02 10:00:25;;;;;;;6.53;5.93;;;;;;;19.14;50.88;102110.75;4980738;28;20096;-86
2022/06/02 10:03:09;;;;;;;6.85;6.15;;;;;;;19.21;48.06;102112.03;4992301;28;20026;-83
2022/06/02 10:05:59;;;;;;;5.87;5.27;;;;;;;19.36;49.73;102113.00;4979431;28;20026;-84
2022/06/02 10:08:45;;;;;;;5.47;4.97;;;;;;;19.44;47.18;102114.31;4993292;28;20784;-84
2022/06/02 10:11:24;;;;;;;5.72;5.22;;;;;;;19.57;49.60;102112.78;4973778;28;20031;-88
2022/06/02 10:14:09;;;;;;;6.90;6.18;;;;;;;19.60;46.85;102118.50;4986923;28;20026;-86
2022/06/02 10:16:52;;;;;;;5.85;5.25;;;;;;;19.42;48.84;102117.28;4994069;28;20030;-86
2022/06/02 10:19:43;;;;;;;5.53;4.65;;;;;;;19.70;50.16;102109.41;4992309;28;20504;-88
2022/06/02 10:22:35;;;;;;;6.32;5.63;;;;;;;19.78;49.04;102114.19;4980985;28;20038;-89
2022/06/02 10:25:19;;;;;;;9.63;6.07;;;;;;;20.01;48.81;102117.25;4955492;28;20122;-87
2022/06/02 10:28:07;;;;;;;9.70;6.47;;;;;;;19.92;45.88;102103.47;4974090;28;20027;-85
2022/06/02 10:30:51;;;;;;;9.20;6.20;;;;;;;19.90;47.26;102099.44;4987639;28;20172;-85
2022/06/02 10:33:46;;;;;;;6.83;6.13;;;;;;;19.93;46.63;102104.25;4983896;28;20496;-83
2022/06/02 10:36:42;;;;;;;7.00;6.30;;;;;;;19.92;46.78;102108.09;4987178;28;20416;-83
2022/06/02 10:39:29;;;;;;;6.90;6.20;;;;;;;19.80;47.69;102103.06;4987332;28;20629;-88
2022/06/02 10:42:00;;;;;;;6.80;6.20;;;;;;;19.65;47.11;102104.81;4990628;28;20988;-91
2022/06/02 10:44:29;;;;;;;5.95;5.40;;;;;;;19.74;46.46;102102.28;4990536;28;20038;-88
2022/06/02 10:47:02;;;;;;;6.65;6.03;;;;;;;19.93;46.12;102105.09;4989161;28;20031;-90
2022/06/02 10:50:16;;;;;;;6.70;6.00;;;;;;;20.24;46.38;102101.97;4994784;28;20065;-92
2022/06/02 10:52:50;;;;;;;8.00;6.78;;;;;;;20.48;43.59;102094.84;4991955;28;20041;-92
2022/06/02 10:55:37;;;;;;;6.30;5.80;;;;;;;20.30;43.74;102099.19;4994378;28;20033;-91
2022/06/02 10:58:23;;;;;;;6.97;5.50;;;;;;;20.43;45.92;102087.56;4993746;28;20034;-92
2022/06/02 11:01:09;;;;;;;5.40;4.90;;;;;;;20.79;43.23;102080.81;5023420;22;20101;-92
2022/06/02 11:03:59;;;;;;;6.03;5.40;;;;;;;20.99;44.40;102088.66;4989644;28;20329;-93
2022/06/02 11:06:28;;;;;;;6.07;5.47;;;;;;;21.26;42.42;102081.63;4993498;28;20549;-92
2022/06/02 11:09:21;;;;;;;5.97;5.38;;;;;;;21.54;43.58;102095.31;4992440;28;20081;-92
2022/06/02 11:12:24;;;;;;;6.63;5.93;;;;;;;21.94;43.27;102087.41;4993123;28;20030;-93
2022/06/02 11:15:08;;;;;;;6.53;5.78;;;;;;;21.98;41.77;102084.09;4992592;28;20065;-91
2022/06/02 11:17:52;;;;;;;6.03;5.53;;;;;;;21.72;43.96;102085.44;4972371;28;20039;-91
2022/06/02 11:20:46;;;;;;;6.40;5.80;;;;;;;21.70;42.32;102092.31;5094831;22;20156;-92
2022/06/02 11:23:53;;;;;;;4.68;4.30;;;;;;;22.01;41.09;102087.00;5012589;28;20030;-92
2022/06/02 11:27:03;;;;;;;5.47;4.78;;;;;;;22.55;41.28;102083.66;5012168;28;20029;-92
2022/06/02 11:29:56;;;;;;;5.40;4.90;;;;;;;23.03;39.97;102071.28;5004065;28;20065;-91
2022/06/02 11:32:41;;;;;;;5.60;4.77;;;;;;;22.89;39.97;102081.50;5009931;28;20323;-91
2022/06/02 11:35:25;;;;;;;5.88;4.82;;;;;;;22.33;39.29;102087.16;5011522;28;20197;-93
2022/06/02 11:38:32;;;;;;;5.85;5.35;;;;;;;21.62;40.99;102075.53;5008518;28;20038;-93
2022/06/02 11:41:24;;;;;;;6.40;5.90;;;;;;;21.35;41.78;102075.50;4993823;28;20680;-93
2022/06/02 11:44:23;;;;;;;6.40;5.80;;;;;;;22.01;42.51;102072.56;5013393;28;20030;-92
2022/06/02 11:47:03;;;;;;;5.50;4.82;;;;;;;22.39;40.05;102075.00;5013732;28;20200;-91
2022/06/02 11:49:54;;;;;;;5.57;5.07;;;;;;;22.43;40.66;102067.84;5011695;28;20361;-87
2022/06/02 11:52:43;;;;;;;5.63;5.13;;;;;;;21.91;40.90;102066.19;4992457;28;20050;-84
2022/06/02 11:55:20;;;;;;;5.85;5.35;;;;;;;21.50;40.03;102050.66;5010040;28;20117;-86
2022/06/02 11:57:57;;;;;;;5.90;4.63;;;;;;;21.65;40.54;102051.50;5009917;28;20477;-85
2022/06/02 12:01:06;;;;;;;5.97;4.57;;;;;;;22.05;40.98;102054.47;5011392;28;20296;-86
2022/06/02 12:03:44;;;;;;;6.65;4.10;;;;;;;21.88;39.67;102045.00;5008837;28;20057;-84
2022/06/02 12:06:31;;;;;;;4.28;3.88;;;;;;;22.08;41.02;102045.69;5009571;28;20489;-85
2022/06/02 12:08:57;;;;;;;4.30;4.00;;;;;;;22.12;37.96;102038.47;5009527;28;20030;-84
2022/06/02 12:11:28;;;;;;;5.33;3.90;;;;;;;21.97;39.42;102036.91;5016418;28;20119;-85
2022/06/02 12:13:59;;;;;;;4.50;4.10;;;;;;;21.92;37.45;102037.81;5010401;28;20033;-84
2022/06/02 12:16:56;;;;;;;4.13;3.83;;;;;;;22.20;38.94;102032.28;5009572;28;20095;-88
2022/06/02 12:20:19;;;;;;;4.15;3.85;;;;;;;22.87;37.36;102024.44;5012487;28;20030;-87
2022/06/02 12:23:09;;;;;;;3.78;3.45;;;;;;;23.01;36.69;102015.34;4959043;28;20054;-86
2022/06/02 12:25:46;;;;;;;4.45;3.22;;;;;;;23.44;37.21;102021.00;4969629;28;20037;-90
2022/06/02 12:28:50;;;;;;;3.38;2.85;;;;;;;24.03;37.78;102022.59;4998974;28;20116;-89
2022/06/02 12:31:24;;;;;;;3.37;2.73;;;;;;;24.07;35.65;102019.22;5008002;28;20029;-90
2022/06/02 12:33:55;;;;;;;3.97;3.67;;;;;;;23.96;35.81;102016.75;5010955;28;20315;-88
2022/06/02 12:36:46;;;;;;;3.60;3.30;;;;;;;24.23;36.67;102012.13;5010047;28;20029;-89
2022/06/02 12:40:02;;;;;;;4.97;4.10;;;;;;;24.36;36.14;102021.31;4991333;28;20062;-88
2022/06/02 12:42:43;;;;;;;5.88;5.22;;;;;;;24.00;36.26;102012.28;4975376;28;20045;-88
2022/06/02 12:45:34;;;;;;;5.25;4.75;;;;;;;23.85;34.21;102002.56;5009180;28;21743;-89
2022/06/02 12:48:08;;;;;;;4.97;4.57;;;;;;;23.26;35.64;102005.66;4972560;28;20494;-91
2022/06/02 12:50:39;;;;;;;5.13;4.38;;;;;;;22.88;35.56;101992.44;5192570;23;20058;-89
2022/06/02 12:53:38;;;;;;;5.00;4.50;;;;;;;22.86;36.15;102000.97;5009349;28;20486;-91
2022/06/02 12:56:31;;;;;;;3.83;3.53;;;;;;;22.99;36.79;101993.78;4997945;28;20030;-89
2022/06/02 12:59:36;;;;;;;3.70;3.30;;;;;;;23.08;36.85;101991.88;5011100;28;20033;-93